Time;durP1;ratioP1;P1;durP2;ratioP2;P2;SDS_P1;SDS_P2;PMS_P1;PMS_P2;Temp;Humidity;BMP_temperature;BMP_pressure;BME280_temperature;BME280_humidity;BME280_pressure;Samples;Min_cycle;Max_cycle;Signal;HPM_P1;HPM_P2
2022/09/25 00:00:33;;;;;;;38.97;21.33;;;12.60;99.90;;;;;;4919166;29;20083;-82
2022/09/25 00:02:58;;;;;;;42.75;24.27;;;12.60;99.90;;;;;;4919196;29;20040;-82
2022/09/25 00:05:24;;;;;;;36.95;20.25;;;12.60;99.90;;;;;;4918950;29;20104;-82
2022/09/25 00:07:50;;;;;;;34.85;18.95;;;12.60;99.90;;;;;;4918937;29;20036;-83
2022/09/25 00:10:16;;;;;;;58.67;31.25;;;12.60;99.90;;;;;;4918858;29;20119;-83
2022/09/25 00:12:42;;;;;;;43.88;24.83;;;12.50;99.90;;;;;;4901545;29;20127;-83
2022/09/25 00:15:08;;;;;;;34.50;19.75;;;12.50;99.90;;;;;;4901962;29;20035;-84
2022/09/25 00:17:34;;;;;;;26.23;15.90;;;12.50;99.90;;;;;;4918876;29;20518;-83
2022/09/25 00:20:00;;;;;;;33.38;16.10;;;12.50;99.90;;;;;;4901718;29;20055;-83
2022/09/25 00:22:29;;;;;;;23.23;15.50;;;12.50;99.90;;;;;;4918867;29;20549;-84
2022/09/25 00:24:55;;;;;;;26.50;16.00;;;12.50;99.90;;;;;;4896122;29;20024;-83
2022/09/25 00:27:20;;;;;;;36.75;21.80;;;12.40;99.90;;;;;;4918676;29;20099;-84
2022/09/25 00:29:46;;;;;;;36.35;20.23;;;12.40;99.90;;;;;;4918148;29;20119;-83
2022/09/25 00:32:12;;;;;;;32.35;18.38;;;12.40;99.90;;;;;;4901425;29;20035;-82
2022/09/25 00:34:39;;;;;;;28.25;17.30;;;12.40;99.90;;;;;;4901591;29;20024;-82
2022/09/25 00:37:06;;;;;;;33.72;18.13;;;12.30;99.90;;;;;;4918773;29;20375;-82
2022/09/25 00:39:32;;;;;;;29.05;17.58;;;12.30;99.90;;;;;;4918375;29;20059;-84
2022/09/25 00:41:58;;;;;;;30.65;18.00;;;12.30;99.90;;;;;;4901545;29;20059;-83
2022/09/25 00:44:56;;;;;;;30.33;17.67;;;12.30;99.90;;;;;;4918105;29;20447;-84
2022/09/25 00:48:05;;;;;;;30.02;18.35;;;12.20;99.90;;;;;;4918171;29;20045;-82
2022/09/25 00:50:51;;;;;;;31.75;19.23;;;12.30;99.90;;;;;;4896076;29;20412;-82
2022/09/25 00:53:23;;;;;;;30.17;18.35;;;12.30;99.90;;;;;;4901059;29;20107;-83
2022/09/25 00:55:50;;;;;;;25.92;16.88;;;12.30;99.90;;;;;;4918205;29;20043;-84
2022/09/25 00:58:21;;;;;;;27.98;16.48;;;12.30;99.90;;;;;;4901164;29;20368;-83
2022/09/25 01:00:47;;;;;;;33.28;19.80;;;12.30;99.90;;;;;;4918079;29;20050;-85
2022/09/25 01:03:14;;;;;;;33.53;18.70;;;12.20;99.90;;;;;;4917972;29;20139;-82
2022/09/25 01:05:43;;;;;;;37.08;21.77;;;12.20;99.90;;;;;;4912133;29;20034;-81
2022/09/25 01:08:15;;;;;;;45.75;25.17;;;12.20;99.90;;;;;;4917892;29;20622;-83
2022/09/25 01:10:41;;;;;;;51.17;27.10;;;12.10;99.90;;;;;;4900632;29;20083;-82
2022/09/25 01:13:07;;;;;;;46.97;26.05;;;12.10;99.90;;;;;;4917772;29;20472;-81
2022/09/25 01:15:52;;;;;;;49.15;26.48;;;12.10;99.90;;;;;;4917699;29;20032;-84
2022/09/25 01:18:38;;;;;;;44.95;26.02;;;12.10;99.90;;;;;;4917981;29;20103;-82
2022/09/25 01:21:10;;;;;;;45.30;25.02;;;12.10;99.90;;;;;;4917880;29;20483;-81
2022/09/25 01:23:42;;;;;;;;;;;12.10;99.90;;;;;;4901217;29;20299;-81
2022/09/25 01:26:45;;;;;;;41.20;24.55;;;12.10;99.90;;;;;;4917856;29;19911;-82
2022/09/25 01:29:39;;;;;;;52.67;26.15;;;12.10;99.90;;;;;;4913220;29;20086;-83
2022/09/25 01:32:22;;;;;;;47.28;25.00;;;12.10;99.90;;;;;;4901273;29;20028;-81
2022/09/25 01:35:19;;;;;;;42.92;24.55;;;12.00;99.90;;;;;;4918360;29;20024;-85
2022/09/25 01:37:58;;;;;;;44.17;22.98;;;12.00;99.90;;;;;;4917440;29;20024;-83
2022/09/25 01:41:01;;;;;;;39.75;21.17;;;11.90;99.90;;;;;;4917328;29;20024;-83
2022/09/25 01:43:39;;;;;;;36.58;19.98;;;11.90;99.90;;;;;;4897126;29;20384;-84
2022/09/25 01:46:17;;;;;;;33.03;19.63;;;11.90;99.90;;;;;;4917608;29;20088;-83
2022/09/25 01:48:46;;;;;;;29.13;19.88;;;11.80;99.90;;;;;;4917468;29;20020;-84
2022/09/25 01:51:27;;;;;;;31.90;19.52;;;11.80;99.90;;;;;;4900028;29;20036;-83
2022/09/25 01:54:07;;;;;;;29.45;18.95;;;11.70;99.90;;;;;;4900191;29;20044;-82
2022/09/25 01:56:43;;;;;;;37.17;19.63;;;11.80;99.90;;;;;;4900118;29;20380;-81
2022/09/25 01:59:15;;;;;;;31.98;19.05;;;11.70;99.90;;;;;;4899948;29;20032;-81
2022/09/25 02:01:43;;;;;;;35.17;20.75;;;11.70;99.90;;;;;;4916828;29;20132;-81
2022/09/25 02:04:22;;;;;;;39.80;21.58;;;11.70;99.90;;;;;;4916647;29;20036;-84
2022/09/25 02:06:50;;;;;;;36.65;20.95;;;11.70;99.90;;;;;;4900141;29;20036;-82
2022/09/25 02:09:24;;;;;;;37.42;19.77;;;11.60;99.90;;;;;;4916983;29;20164;-83
2022/09/25 02:11:55;;;;;;;38.15;20.05;;;11.60;99.90;;;;;;4899628;29;20498;-83
2022/09/25 02:14:22;;;;;;;38.22;20.73;;;11.60;99.90;;;;;;4899629;29;20036;-83
2022/09/25 02:16:54;;;;;;;34.67;19.30;;;11.60;99.90;;;;;;4916809;29;20051;-82
2022/09/25 02:22:18;;;;;;;35.40;21.45;;;11.60;99.90;;;;;;4911381;29;20034;-82
2022/09/25 02:24:55;;;;;;;36.03;22.15;;;11.50;99.90;;;;;;4899814;29;20177;-82
2022/09/25 02:27:23;;;;;;;41.00;23.00;;;11.50;99.90;;;;;;4917211;29;20032;-82
2022/09/25 02:29:49;;;;;;;39.47;24.05;;;11.50;99.90;;;;;;4916917;29;20031;-82
2022/09/25 02:32:20;;;;;;;41.78;24.75;;;11.40;99.90;;;;;;4916286;29;20025;-82
2022/09/25 02:34:46;;;;;;;46.30;24.50;;;11.40;99.90;;;;;;4916609;29;20024;-83
2022/09/25 02:37:16;;;;;;;43.03;23.77;;;11.40;99.90;;;;;;4916664;29;20164;-82
2022/09/25 02:39:51;;;;;;;39.15;23.60;;;11.30;99.90;;;;;;4916517;29;20039;-83
2022/09/25 02:42:26;;;;;;;44.60;24.52;;;11.30;99.90;;;;;;4916398;29;20043;-82
2022/09/25 02:45:29;;;;;;;39.28;24.45;;;11.30;99.90;;;;;;4916756;29;20528;-83
2022/09/25 02:48:11;;;;;;;42.78;24.42;;;11.30;99.90;;;;;;4916872;29;20540;-82
2022/09/25 02:50:51;;;;;;;39.90;24.30;;;11.20;99.90;;;;;;4911283;29;20031;-82
2022/09/25 02:53:49;;;;;;;44.75;24.58;;;11.20;99.90;;;;;;4911626;29;20040;-82
2022/09/25 02:56:40;;;;;;;42.38;24.60;;;11.20;99.90;;;;;;4914415;29;20095;-82
2022/09/25 02:59:17;;;;;;;42.15;24.70;;;11.20;99.90;;;;;;4917004;29;20056;-83
2022/09/25 03:01:45;;;;;;;45.17;24.05;;;11.20;99.90;;;;;;4910283;29;20519;-83
2022/09/25 03:04:13;;;;;;;41.35;24.38;;;11.20;99.90;;;;;;4916466;29;20088;-83
2022/09/25 03:06:40;;;;;;;46.38;23.55;;;11.20;99.90;;;;;;4916180;29;20472;-82
2022/09/25 03:09:08;;;;;;;37.47;22.65;;;11.20;99.90;;;;;;4916717;29;20391;-82
2022/09/25 03:11:40;;;;;;;36.50;21.83;;;11.20;99.90;;;;;;4916211;29;20036;-84
2022/09/25 03:14:06;;;;;;;36.17;22.02;;;11.20;99.90;;;;;;4899229;29;20036;-82
2022/09/25 03:16:44;;;;;;;34.90;21.17;;;11.20;99.90;;;;;;4899478;29;20068;-82
2022/09/25 03:19:11;;;;;;;33.63;20.02;;;11.20;99.90;;;;;;4911242;29;20075;-83
2022/09/25 03:21:37;;;;;;;30.80;19.70;;;11.30;99.90;;;;;;4916315;29;20472;-83
2022/09/25 03:24:03;;;;;;;31.13;17.35;;;11.30;99.90;;;;;;4916505;29;20435;-81
2022/09/25 03:26:29;;;;;;;28.42;18.30;;;11.30;99.90;;;;;;4916377;29;20468;-82
2022/09/25 03:28:55;;;;;;;31.60;16.70;;;11.30;99.90;;;;;;4898627;29;20038;-82
2022/09/25 03:31:21;;;;;;;29.58;16.40;;;11.30;99.90;;;;;;4916126;29;20050;-83
2022/09/25 03:33:47;;;;;;;26.58;17.05;;;11.30;99.90;;;;;;4902424;29;20094;-83
2022/09/25 03:36:21;;;;;;;31.15;17.15;;;11.30;99.90;;;;;;4919263;29;20488;-84
2022/09/25 03:38:49;;;;;;;28.10;17.58;;;11.30;99.90;;;;;;4919356;29;20028;-83
2022/09/25 03:41:19;;;;;;;35.45;18.48;;;11.30;99.90;;;;;;4919326;29;20078;-82
2022/09/25 03:43:47;;;;;;;30.27;18.65;;;11.30;99.90;;;;;;4902763;29;20047;-84
2022/09/25 03:46:14;;;;;;;38.38;21.42;;;11.30;99.90;;;;;;4902459;29;20437;-84
2022/09/25 03:48:40;;;;;;;30.20;20.00;;;11.30;99.90;;;;;;4902188;29;20028;-82
2022/09/25 03:51:08;;;;;;;37.42;19.20;;;11.30;99.90;;;;;;4919509;29;20031;-81
2022/09/25 03:53:34;;;;;;;28.25;19.55;;;11.40;99.90;;;;;;4919031;29;20063;-82
2022/09/25 03:56:02;;;;;;;33.42;17.95;;;11.40;99.90;;;;;;4902904;29;20028;-82
2022/09/25 03:58:28;;;;;;;27.25;17.58;;;11.40;99.90;;;;;;4919995;29;20039;-83
2022/09/25 04:00:57;;;;;;;26.90;17.35;;;11.40;99.90;;;;;;4919118;29;20028;-82
2022/09/25 04:03:26;;;;;;;28.45;17.70;;;11.40;99.90;;;;;;4902006;29;20037;-82
2022/09/25 04:05:53;;;;;;;27.98;17.92;;;11.40;99.90;;;;;;4902020;29;20024;-82
2022/09/25 04:08:18;;;;;;;29.02;17.63;;;11.40;99.90;;;;;;4901981;29;20028;-83
2022/09/25 04:10:44;;;;;;;27.75;16.77;;;11.50;99.90;;;;;;4918219;29;20042;-82
2022/09/25 04:13:11;;;;;;;30.08;16.50;;;11.50;99.90;;;;;;4918262;29;20044;-82
2022/09/25 04:15:38;;;;;;;30.83;17.40;;;11.50;99.90;;;;;;4918984;29;20491;-81
2022/09/25 04:18:05;;;;;;;26.38;17.13;;;11.50;99.90;;;;;;4919312;29;20044;-80
2022/09/25 04:20:31;;;;;;;26.27;16.73;;;11.50;99.90;;;;;;4912315;29;20387;-82
2022/09/25 04:22:57;;;;;;;28.63;16.67;;;11.50;99.90;;;;;;4901759;29;20028;-81
2022/09/25 04:25:24;;;;;;;30.77;17.02;;;11.60;99.90;;;;;;4918359;29;20035;-83
2022/09/25 04:27:54;;;;;;;28.73;17.27;;;11.60;99.90;;;;;;4918441;29;20028;-83
2022/09/25 04:30:25;;;;;;;30.50;16.33;;;11.60;99.90;;;;;;4901322;29;20067;-85
2022/09/25 04:35:36;;;;;;;39.30;19.33;;;11.60;99.90;;;;;;4918482;29;20058;-82
2022/09/25 04:38:02;;;;;;;28.58;17.95;;;11.60;99.90;;;;;;4901155;29;20464;-83
2022/09/25 04:40:29;;;;;;;30.20;18.75;;;11.70;99.90;;;;;;4918583;29;20032;-82
2022/09/25 04:43:00;;;;;;;33.75;19.50;;;11.70;99.90;;;;;;4918499;29;20035;-83
2022/09/25 04:45:26;;;;;;;38.33;20.75;;;11.60;99.90;;;;;;4917965;29;20032;-81
2022/09/25 04:47:53;;;;;;;40.35;21.15;;;11.70;99.90;;;;;;4918404;29;20028;-82
2022/09/25 04:50:20;;;;;;;37.13;19.20;;;11.70;99.90;;;;;;4901451;29;20423;-82
2022/09/25 04:52:46;;;;;;;32.72;20.00;;;11.70;99.90;;;;;;4917924;29;20040;-83
2022/09/25 04:55:12;;;;;;;47.13;26.42;;;11.80;99.90;;;;;;4918232;29;20034;-83
2022/09/25 04:57:38;;;;;;;30.75;17.15;;;11.80;99.90;;;;;;4918174;29;20028;-82
2022/09/25 05:00:05;;;;;;;37.10;21.58;;;11.70;99.90;;;;;;4917932;29;20460;-81
2022/09/25 05:02:31;;;;;;;45.70;25.45;;;11.70;99.90;;;;;;4911933;29;20063;-84
2022/09/25 05:04:57;;;;;;;35.63;21.45;;;11.70;99.90;;;;;;4917874;29;20059;-82
2022/09/25 05:07:22;;;;;;;31.40;17.88;;;11.70;99.90;;;;;;4918022;29;20028;-81
2022/09/25 05:09:48;;;;;;;27.15;16.65;;;11.70;99.90;;;;;;4917637;29;20059;-83
2022/09/25 05:12:14;;;;;;;28.85;16.73;;;11.70;99.90;;;;;;4900797;29;20079;-83
2022/09/25 05:14:41;;;;;;;44.65;21.98;;;11.80;99.90;;;;;;4900509;29;20034;-83
2022/09/25 05:17:09;;;;;;;38.63;20.52;;;11.80;99.90;;;;;;4916350;29;20668;-82
2022/09/25 05:19:35;;;;;;;28.27;15.13;;;11.90;99.90;;;;;;4913857;29;20023;-83
2022/09/25 05:22:01;;;;;;;31.23;17.77;;;11.90;99.90;;;;;;4916249;29;20088;-82
2022/09/25 05:24:27;;;;;;;28.50;15.40;;;12.00;99.90;;;;;;4899530;29;20075;-82
2022/09/25 05:26:52;;;;;;;28.30;17.05;;;11.90;99.90;;;;;;4900026;29;20028;-81
2022/09/25 05:29:18;;;;;;;26.42;15.30;;;12.00;99.90;;;;;;4900188;29;20028;-83
2022/09/25 05:31:48;;;;;;;31.70;18.63;;;12.00;99.90;;;;;;4917427;29;20481;-82
2022/09/25 05:34:15;;;;;;;32.17;18.92;;;12.00;99.90;;;;;;4917242;29;20519;-82
2022/09/25 05:36:41;;;;;;;34.70;20.70;;;12.00;99.90;;;;;;4917610;29;20043;-83
2022/09/25 05:39:10;;;;;;;51.15;27.40;;;12.10;99.90;;;;;;4917273;29;20082;-81
2022/09/25 05:41:36;;;;;;;48.85;28.42;;;12.10;99.90;;;;;;4894359;29;20035;-80
2022/09/25 05:44:08;;;;;;;41.85;25.58;;;12.10;99.90;;;;;;4917327;29;20035;-81
2022/09/25 05:46:34;;;;;;;43.05;24.25;;;12.20;99.90;;;;;;4900523;29;20035;-82
2022/09/25 05:49:01;;;;;;;41.50;25.58;;;12.20;99.90;;;;;;4899964;29;20395;-81
2022/09/25 05:51:27;;;;;;;52.47;28.83;;;12.30;99.90;;;;;;4917358;29;20096;-82
2022/09/25 05:53:53;;;;;;;64.93;31.40;;;12.40;99.90;;;;;;4917458;29;20115;-81
2022/09/25 05:56:19;;;;;;;61.83;29.38;;;12.50;99.90;;;;;;4915369;29;20099;-81
2022/09/25 05:58:47;;;;;;;43.38;22.50;;;12.60;99.90;;;;;;4916820;29;20468;-81
2022/09/25 06:01:13;;;;;;;37.08;20.58;;;12.70;99.90;;;;;;4917084;29;20052;-81
2022/09/25 06:03:39;;;;;;;33.78;18.52;;;12.90;99.90;;;;;;4900139;29;20040;-81
2022/09/25 06:06:05;;;;;;;32.03;19.45;;;13.00;99.90;;;;;;4900243;29;20464;-81
2022/09/25 06:08:34;;;;;;;26.70;16.73;;;13.10;99.90;;;;;;4899561;29;20449;-82
2022/09/25 06:11:01;;;;;;;32.60;18.33;;;13.20;99.90;;;;;;4916809;29;20079;-81
2022/09/25 06:13:29;;;;;;;29.13;17.48;;;13.20;99.90;;;;;;4915880;29;20032;-81
2022/09/25 06:15:55;;;;;;;29.58;18.83;;;13.40;99.90;;;;;;4916511;29;20383;-82
2022/09/25 06:18:23;;;;;;;32.70;18.58;;;13.60;99.90;;;;;;4916024;29;20044;-81
2022/09/25 06:20:50;;;;;;;33.05;19.92;;;13.80;99.90;;;;;;4916310;29;20032;-80
2022/09/25 06:23:17;;;;;;;34.45;18.73;;;14.00;99.90;;;;;;4916069;29;20365;-82
2022/09/25 06:25:44;;;;;;;42.17;18.95;;;14.10;99.90;;;;;;4916864;29;20024;-82
2022/09/25 06:28:11;;;;;;;37.53;19.50;;;14.30;99.90;;;;;;4915975;29;20024;-81
2022/09/25 06:30:37;;;;;;;30.52;19.67;;;14.60;99.90;;;;;;4916196;29;20028;-81
2022/09/25 06:33:08;;;;;;;39.95;19.10;;;14.70;99.90;;;;;;4916476;29;20040;-81
2022/09/25 06:35:35;;;;;;;32.17;19.45;;;14.90;99.90;;;;;;4916556;29;20032;-82
2022/09/25 06:38:02;;;;;;;36.00;17.73;;;15.20;99.90;;;;;;4916815;29;20024;-82
2022/09/25 06:40:30;;;;;;;27.08;16.02;;;15.40;99.90;;;;;;4916674;29;20036;-81
2022/09/25 06:43:00;;;;;;;31.17;15.98;;;15.50;99.90;;;;;;4916465;29;20032;-82
2022/09/25 06:45:28;;;;;;;26.13;16.67;;;15.70;99.90;;;;;;4916288;29;20040;-81
2022/09/25 06:47:58;;;;;;;30.00;13.82;;;15.80;99.90;;;;;;4916487;29;20039;-82
2022/09/25 06:50:30;;;;;;;27.13;14.52;;;15.90;99.90;;;;;;4917271;29;20032;-80
2022/09/25 06:52:59;;;;;;;20.42;13.63;;;16.00;99.90;;;;;;4917436;29;20032;-82
2022/09/25 06:55:31;;;;;;;26.27;13.88;;;16.20;99.90;;;;;;4917062;29;20113;-81
2022/09/25 06:57:57;;;;;;;21.33;13.00;;;16.30;99.90;;;;;;4916697;29;20028;-84
2022/09/25 07:00:23;;;;;;;25.83;15.48;;;16.40;99.90;;;;;;4916514;29;20047;-82
2022/09/25 07:05:33;;;;;;;39.35;23.13;;;16.50;99.90;;;;;;4916138;29;20088;-82
2022/09/25 07:08:00;;;;;;;53.25;33.90;;;16.60;99.90;;;;;;4918255;29;20024;-80
2022/09/25 07:10:26;;;;;;;50.17;31.85;;;16.70;99.90;;;;;;4920189;29;20032;-80
2022/09/25 07:12:51;;;;;;;45.55;29.77;;;16.80;99.90;;;;;;4919416;29;20448;-81
2022/09/25 07:15:17;;;;;;;37.30;25.10;;;16.90;99.90;;;;;;4920790;29;20040;-83
2022/09/25 07:17:44;;;;;;;44.28;23.75;;;17.10;99.90;;;;;;4920175;29;20048;-81
2022/09/25 07:20:14;;;;;;;33.72;22.48;;;17.20;99.90;;;;;;4919478;29;20038;-81
2022/09/25 07:22:41;;;;;;;58.78;26.63;;;17.20;99.90;;;;;;4902321;29;20036;-81
2022/09/25 07:25:08;;;;;;;43.80;29.23;;;17.40;99.90;;;;;;4902698;29;20032;-82
2022/09/25 07:27:34;;;;;;;39.55;26.35;;;17.40;99.90;;;;;;4903143;29;20490;-82
2022/09/25 07:30:01;;;;;;;36.53;26.20;;;17.50;99.90;;;;;;4902627;29;20040;-81
2022/09/25 07:32:28;;;;;;;31.13;20.83;;;17.60;99.90;;;;;;4919233;29;20071;-83
2022/09/25 07:34:54;;;;;;;30.95;20.67;;;17.70;99.90;;;;;;4902684;29;20024;-82
2022/09/25 07:37:19;;;;;;;31.38;21.23;;;17.70;99.90;;;;;;4902536;29;20028;-80
2022/09/25 07:39:45;;;;;;;25.10;17.83;;;17.70;99.90;;;;;;4919176;29;20116;-83
2022/09/25 07:42:11;;;;;;;23.83;14.48;;;17.80;99.90;;;;;;4919565;29;20054;-80
2022/09/25 07:44:38;;;;;;;19.42;11.70;;;17.80;99.90;;;;;;4919490;29;20192;-81
2022/09/25 07:47:06;;;;;;;21.13;10.38;;;17.70;99.90;;;;;;4918653;29;20024;-81
2022/09/25 07:49:33;;;;;;;17.08;11.02;;;17.70;99.90;;;;;;4918512;29;20035;-80
2022/09/25 07:52:00;;;;;;;21.20;11.10;;;17.80;99.90;;;;;;4918983;29;20028;-81
2022/09/25 07:54:26;;;;;;;15.43;10.00;;;17.90;99.90;;;;;;4919860;29;20043;-81
2022/09/25 07:56:51;;;;;;;17.83;8.88;;;18.00;99.90;;;;;;4920017;29;20028;-82
2022/09/25 07:59:17;;;;;;;18.17;9.38;;;18.10;99.90;;;;;;4919532;29;20683;-81
2022/09/25 08:01:43;;;;;;;18.17;8.95;;;18.30;99.90;;;;;;4919078;29;20028;-82
2022/09/25 08:04:09;;;;;;;15.13;8.63;;;18.50;99.90;;;;;;4918896;29;20373;-84
2022/09/25 08:06:35;;;;;;;14.43;8.30;;;18.60;98.70;;;;;;4902329;29;20033;-82
2022/09/25 08:09:01;;;;;;;15.30;8.95;;;18.70;98.10;;;;;;4918984;29;20024;-82
2022/09/25 08:11:30;;;;;;;15.07;9.25;;;18.90;99.90;;;;;;4919145;29;20510;-82
2022/09/25 08:13:56;;;;;;;17.35;9.07;;;18.90;96.30;;;;;;4918475;29;20554;-83
2022/09/25 08:16:22;;;;;;;17.48;8.35;;;19.00;98.50;;;;;;4918002;29;20835;-81
2022/09/25 08:18:49;;;;;;;13.38;7.95;;;19.00;99.50;;;;;;4917929;29;20028;-82
2022/09/25 08:21:19;;;;;;;12.90;7.40;;;19.10;96.10;;;;;;4918667;29;20039;-82
2022/09/25 08:23:50;;;;;;;13.75;7.90;;;19.20;93.80;;;;;;4913002;29;20075;-81
2022/09/25 08:26:17;;;;;;;14.02;8.50;;;19.30;96.60;;;;;;4901305;29;20032;-81
2022/09/25 08:28:43;;;;;;;17.73;9.30;;;19.30;93.50;;;;;;4901637;29;20038;-82
2022/09/25 08:31:09;;;;;;;15.75;9.25;;;19.20;95.20;;;;;;4901041;29;20036;-79
2022/09/25 08:33:36;;;;;;;15.90;10.80;;;19.40;96.40;;;;;;4918632;29;20074;-79
2022/09/25 08:36:03;;;;;;;17.45;11.23;;;19.50;95.40;;;;;;4902184;29;20035;-78
2022/09/25 08:38:33;;;;;;;18.80;11.70;;;19.70;96.70;;;;;;4919012;29;20020;-79
2022/09/25 08:41:15;;;;;;;17.23;11.27;;;19.70;91.20;;;;;;4918447;29;20024;-79
2022/09/25 08:44:08;;;;;;;18.05;10.32;;;19.90;91.50;;;;;;4918413;29;20062;-79
2022/09/25 08:49:37;;;;;;;11.68;8.35;;;20.30;85.20;;;;;;4918381;29;20071;-79
2022/09/25 08:52:07;;;;;;;14.80;9.50;;;20.40;82.50;;;;;;4918218;29;20116;-78
2022/09/25 08:54:34;;;;;;;14.55;7.47;;;20.50;78.60;;;;;;4918291;29;20127;-78
2022/09/25 08:57:36;;;;;;;15.90;7.95;;;20.60;74.90;;;;;;4917814;29;20396;-78
2022/09/25 09:00:31;;;;;;;12.63;7.40;;;20.70;79.10;;;;;;4892159;29;20118;-78
2022/09/25 09:02:58;;;;;;;13.68;7.38;;;20.50;76.30;;;;;;4913981;29;20036;-77
2022/09/25 09:05:32;;;;;;;10.98;7.25;;;20.50;74.50;;;;;;4918163;29;20391;-81
2022/09/25 09:08:24;;;;;;;10.32;7.47;;;20.40;81.60;;;;;;4917598;29;20072;-81
2022/09/25 09:11:06;;;;;;;15.88;8.02;;;20.50;79.30;;;;;;4918429;29;20028;-79
2022/09/25 09:13:41;;;;;;;10.73;6.40;;;20.50;74.30;;;;;;4918725;29;20040;-81
2022/09/25 09:16:08;;;;;;;11.52;6.45;;;20.60;75.80;;;;;;4918059;29;20428;-80
2022/09/25 09:18:39;;;;;;;11.90;6.15;;;20.70;77.60;;;;;;4901442;29;20044;-79
2022/09/25 09:21:21;;;;;;;14.55;7.63;;;20.60;70.70;;;;;;4918142;29;20031;-79
2022/09/25 09:24:03;;;;;;;14.05;7.60;;;20.60;70.60;;;;;;4918648;29;20032;-79
2022/09/25 09:26:32;;;;;;;12.43;7.50;;;20.50;72.50;;;;;;4918854;29;20055;-80
2022/09/25 09:29:16;;;;;;;14.38;6.82;;;20.50;68.10;;;;;;4917384;29;20036;-77
2022/09/25 09:31:55;;;;;;;12.27;6.75;;;20.50;73.20;;;;;;4900165;29;20028;-80
2022/09/25 09:34:57;;;;;;;14.65;6.93;;;20.50;69.80;;;;;;4918135;29;20060;-80
2022/09/25 09:37:23;;;;;;;;;;;20.40;73.00;;;;;;4905680;29;20047;-80
2022/09/25 09:40:01;;;;;;;12.30;5.95;;;20.40;73.20;;;;;;4900966;29;19907;-80
2022/09/25 09:42:53;;;;;;;8.57;6.00;;;20.30;70.90;;;;;;4917811;29;20115;-79
2022/09/25 09:45:32;;;;;;;8.00;5.55;;;20.20;70.10;;;;;;4914279;29;20040;-78
2022/09/25 09:47:58;;;;;;;8.45;5.32;;;20.30;69.20;;;;;;4918026;29;20042;-81
2022/09/25 09:50:45;;;;;;;10.98;6.43;;;20.30;64.30;;;;;;4917846;29;20032;-79
2022/09/25 09:53:34;;;;;;;11.05;5.93;;;20.40;69.20;;;;;;4917844;29;20092;-80
2022/09/25 09:56:20;;;;;;;8.32;5.15;;;20.40;64.80;;;;;;4899686;29;20392;-81
2022/09/25 09:58:51;;;;;;;8.18;5.20;;;20.40;69.20;;;;;;4903610;29;20032;-80
2022/09/25 10:01:20;;;;;;;8.80;5.57;;;20.40;64.50;;;;;;4917022;29;20391;-81
2022/09/25 10:03:55;;;;;;;12.05;5.22;;;20.40;68.20;;;;;;4917759;29;20040;-80
2022/09/25 10:06:24;;;;;;;10.23;6.72;;;20.40;69.80;;;;;;4916645;29;20027;-80
2022/09/25 10:08:50;;;;;;;10.85;5.95;;;20.50;71.20;;;;;;4898856;29;20036;-81
2022/09/25 10:11:18;;;;;;;11.98;6.93;;;20.50;69.10;;;;;;4915456;29;20034;-80
2022/09/25 10:13:45;;;;;;;17.90;7.60;;;20.60;72.40;;;;;;4900273;29;20068;-82
2022/09/25 10:16:16;;;;;;;11.65;6.40;;;20.70;72.50;;;;;;4917357;29;20028;-77
2022/09/25 10:18:51;;;;;;;10.10;6.97;;;20.60;66.40;;;;;;4917593;29;20054;-80
2022/09/25 10:21:41;;;;;;;23.02;15.38;;;20.70;66.90;;;;;;4900372;29;20267;-78
2022/09/25 10:24:06;;;;;;;14.52;8.55;;;20.70;65.70;;;;;;4908297;29;20083;-80
2022/09/25 10:26:38;;;;;;;12.70;7.18;;;20.70;65.60;;;;;;4917467;29;20056;-79
2022/09/25 10:29:20;;;;;;;12.13;7.07;;;20.70;64.10;;;;;;4900400;29;20033;-81
2022/09/25 10:31:47;;;;;;;12.02;6.85;;;20.60;62.80;;;;;;4917719;29;20024;-82
2022/09/25 10:34:12;;;;;;;10.00;6.32;;;20.60;64.30;;;;;;4916777;29;20046;-81
2022/09/25 10:36:41;;;;;;;60.30;24.45;;;20.60;68.80;;;;;;4916876;29;20111;-80
2022/09/25 10:39:32;;;;;;;18.48;7.63;;;20.60;65.40;;;;;;4916979;29;20361;-80
2022/09/25 10:42:06;;;;;;;12.70;6.85;;;20.60;65.80;;;;;;4917300;29;20222;-80
2022/09/25 10:44:37;;;;;;;10.38;7.07;;;20.60;64.50;;;;;;4903510;29;20119;-81
2022/09/25 10:50:17;;;;;;;11.13;7.05;;;20.50;64.10;;;;;;4919582;29;20559;-78
2022/09/25 10:52:51;;;;;;;15.60;7.35;;;20.50;62.20;;;;;;4904252;29;20131;-79
2022/09/25 10:55:30;;;;;;;13.27;7.18;;;20.60;65.30;;;;;;4920923;29;20032;-80
2022/09/25 10:58:08;;;;;;;14.55;8.32;;;20.70;68.20;;;;;;4921285;29;20119;-79
2022/09/25 11:00:52;;;;;;;13.80;6.85;;;20.70;63.30;;;;;;4904004;29;20028;-79
2022/09/25 11:03:24;;;;;;;13.60;7.00;;;20.80;61.90;;;;;;4920517;29;20095;-80
2022/09/25 11:05:54;;;;;;;12.88;6.93;;;20.90;61.70;;;;;;4921132;29;20025;-78
2022/09/25 11:08:23;;;;;;;16.08;7.75;;;20.90;63.30;;;;;;4920935;29;20480;-79
2022/09/25 11:10:56;;;;;;;15.00;7.82;;;20.90;59.00;;;;;;4903497;29;20058;-77
2022/09/25 11:13:27;;;;;;;12.00;6.72;;;20.90;57.30;;;;;;4920296;29;20125;-81
2022/09/25 11:15:58;;;;;;;14.83;6.60;;;20.90;58.30;;;;;;4903993;29;20428;-78
2022/09/25 11:19:03;;;;;;;13.73;7.22;;;20.90;58.80;;;;;;4903133;29;20620;-79
2022/09/25 11:21:39;;;;;;;11.07;7.15;;;20.80;57.20;;;;;;4903193;29;20040;-78
2022/09/25 11:24:12;;;;;;;27.23;13.00;;;20.70;59.90;;;;;;4903448;29;20039;-79
2022/09/25 11:26:42;;;;;;;16.38;8.05;;;20.60;58.40;;;;;;4920562;29;20059;-81
2022/09/25 11:29:35;;;;;;;12.07;5.63;;;20.40;58.30;;;;;;4920440;29;20528;-80
2022/09/25 11:32:30;;;;;;;12.63;4.97;;;20.30;58.00;;;;;;4903268;29;20079;-79
2022/09/25 11:35:19;;;;;;;10.73;5.90;;;20.30;62.90;;;;;;4919395;29;20040;-79
2022/09/25 11:37:48;;;;;;;11.85;5.43;;;20.10;59.60;;;;;;4902756;29;20443;-80
2022/09/25 11:43:19;;;;;;;7.22;4.93;;;20.00;56.50;;;;;;4919879;29;20039;-80
2022/09/25 11:46:01;;;;;;;12.90;4.90;;;20.00;56.90;;;;;;4919953;29;20028;-80
2022/09/25 11:48:57;;;;;;;10.13;4.60;;;20.00;56.80;;;;;;4903243;29;20376;-79
2022/09/25 11:51:49;;;;;;;9.07;4.88;;;20.00;57.90;;;;;;4919301;29;20076;-80
2022/09/25 11:54:45;;;;;;;14.40;8.20;;;20.10;62.40;;;;;;4919609;29;20096;-80
2022/09/25 11:57:30;;;;;;;9.48;6.18;;;20.20;58.60;;;;;;4900058;29;20031;-79
2022/09/25 12:00:08;;;;;;;15.85;7.78;;;20.20;59.50;;;;;;4902841;29;20372;-80
2022/09/25 12:02:47;;;;;;;14.18;8.07;;;20.20;63.20;;;;;;4919906;29;20028;-79
2022/09/25 12:05:26;;;;;;;28.63;7.20;;;20.20;58.50;;;;;;4918695;29;20395;-80
2022/09/25 12:08:13;;;;;;;8.82;5.70;;;20.20;60.30;;;;;;4918757;29;20103;-78
2022/09/25 12:10:53;;;;;;;12.32;5.95;;;20.20;62.00;;;;;;4919829;29;20028;-81
2022/09/25 12:13:40;;;;;;;11.93;6.97;;;20.20;63.30;;;;;;4919584;29;20051;-79
2022/09/25 12:16:20;;;;;;;12.15;6.93;;;20.20;64.60;;;;;;4919299;29;20032;-81
2022/09/25 12:19:11;;;;;;;14.50;7.10;;;20.10;67.20;;;;;;4917723;29;20547;-81
2022/09/25 12:22:13;;;;;;;13.57;7.32;;;20.10;69.40;;;;;;4902652;29;20028;-81
2022/09/25 12:24:42;;;;;;;15.60;7.82;;;20.00;72.00;;;;;;4918365;29;20484;-79
2022/09/25 12:27:33;;;;;;;10.52;6.50;;;19.90;71.30;;;;;;4901380;29;20036;-80
2022/09/25 12:30:16;;;;;;;12.50;7.50;;;19.80;71.90;;;;;;4918144;29;20036;-80
2022/09/25 12:33:01;;;;;;;14.00;9.35;;;19.70;72.40;;;;;;4895117;29;20028;-81
2022/09/25 12:35:39;;;;;;;15.75;8.77;;;19.60;73.20;;;;;;4917537;29;20047;-80
2022/09/25 12:38:16;;;;;;;15.07;9.07;;;19.60;73.80;;;;;;4919475;29;20024;-78
2022/09/25 12:40:48;;;;;;;15.23;8.95;;;19.60;76.40;;;;;;4902233;29;20059;-82
2022/09/25 12:43:23;;;;;;;17.15;9.95;;;19.50;75.40;;;;;;4902369;29;20024;-79
2022/09/25 12:45:59;;;;;;;47.63;21.27;;;19.50;76.10;;;;;;4902217;29;20032;-79
2022/09/25 12:48:50;;;;;;;64.35;34.38;;;19.50;77.90;;;;;;4919162;29;20028;-78
2022/09/25 12:51:25;;;;;;;47.88;25.23;;;19.60;78.30;;;;;;4901931;29;20032;-79
2022/09/25 12:54:00;;;;;;;65.53;35.80;;;19.70;79.50;;;;;;4902226;29;20396;-80
2022/09/25 12:56:40;;;;;;;88.45;47.33;;;19.70;80.60;;;;;;4901580;29;20472;-79
2022/09/25 12:59:37;;;;;;;69.15;37.72;;;19.80;80.80;;;;;;4919276;29;20036;-81
2022/09/25 13:02:21;;;;;;;72.65;37.55;;;19.90;82.90;;;;;;4901846;29;20119;-80
2022/09/25 13:04:46;;;;;;;25.10;13.43;;;19.90;80.90;;;;;;4918476;29;20042;-80
2022/09/25 13:07:24;;;;;;;17.98;10.23;;;20.00;78.50;;;;;;4918944;29;20032;-79
2022/09/25 13:09:50;;;;;;;15.40;7.95;;;20.00;78.10;;;;;;4918408;29;20032;-79
2022/09/25 13:12:32;;;;;;;15.65;8.98;;;20.10;79.50;;;;;;4918545;29;20464;-82
2022/09/25 13:15:00;;;;;;;;;;;20.10;80.70;;;;;;4919208;29;20036;-79